createdAt,value
2019-02-04T00:01:18.559Z,73.05
2019-02-04T00:02:23.647Z,73.06
2019-02-04T00:03:28.787Z,73.06
2019-02-04T00:04:34.156Z,73.06
2019-02-04T00:05:39.333Z,73.03
2019-02-04T00:06:44.279Z,73.03
2019-02-04T00:07:49.479Z,73.00
2019-02-04T00:08:54.514Z,72.97
2019-02-04T00:09:59.572Z,72.93
2019-02-04T00:11:04.619Z,72.85
2019-02-04T00:12:09.694Z,72.78
2019-02-04T00:13:14.723Z,72.73
2019-02-04T00:14:19.749Z,72.67
2019-02-04T00:15:24.929Z,72.60
2019-02-04T00:16:40.345Z,72.59
2019-02-04T00:17:36.897Z,72.55
2019-02-04T00:18:41.858Z,72.57
2019-02-04T00:19:46.979Z,72.59
2019-02-04T00:20:52.146Z,72.67
2019-02-04T00:21:57.454Z,72.70
2019-02-04T00:23:02.989Z,72.82
2019-02-04T00:24:08.312Z,72.89
2019-02-04T00:25:13.517Z,72.97
2019-02-04T00:26:18.452Z,72.97
2019-02-04T00:29:28.472Z,73.03
2019-02-04T00:30:34.075Z,72.96
2019-02-04T00:31:39.626Z,73.00
2019-02-04T00:32:44.671Z,73.04
2019-02-04T00:33:50.038Z,73.08
2019-02-04T00:34:56.281Z,73.10
2019-02-04T00:36:01.413Z,73.11
2019-02-04T00:37:07.235Z,73.16
2019-02-04T00:38:12.652Z,73.16
2019-02-04T00:39:17.696Z,73.19
2019-02-04T00:40:24.348Z,73.22
2019-02-04T00:41:29.736Z,73.22
2019-02-04T00:42:35.751Z,73.23
2019-02-04T00:43:41.111Z,73.23
2019-02-04T00:44:46.610Z,73.20
2019-02-04T00:45:52.098Z,73.27
2019-02-04T00:46:57.382Z,73.34
2019-02-04T00:48:02.715Z,73.40
2019-02-04T00:49:08.469Z,73.46
2019-02-04T00:50:14.356Z,73.46
2019-02-04T00:51:19.472Z,73.45
2019-02-04T00:52:25.019Z,73.46
2019-02-04T00:53:30.042Z,73.49
2019-02-04T00:54:35.837Z,73.46
2019-02-04T00:55:43.483Z,73.43
2019-02-04T00:56:48.912Z,73.40
2019-02-04T00:57:53.947Z,73.34
2019-02-04T00:58:59.652Z,73.28
2019-02-04T01:00:07.289Z,73.23
2019-02-04T01:01:14.431Z,73.17
2019-02-04T01:02:19.551Z,73.11
2019-02-04T01:03:24.665Z,73.09
2019-02-04T01:04:30.027Z,73.08
2019-02-04T01:05:35.426Z,73.07
2019-02-04T01:06:41.623Z,73.08
2019-02-04T01:07:47.202Z,73.08
2019-02-04T01:08:54.714Z,73.08
2019-02-04T01:09:59.642Z,73.08
2019-02-04T01:11:04.939Z,73.04
2019-02-04T01:12:10.061Z,73.04
2019-02-04T01:13:15.126Z,73.08
2019-02-04T01:14:20.239Z,73.11
2019-02-04T01:15:25.843Z,73.17
2019-02-04T01:16:31.237Z,73.21
2019-02-04T01:17:36.378Z,73.23
2019-02-04T01:18:41.637Z,73.30
2019-02-04T01:19:46.762Z,73.29
2019-02-04T01:20:51.759Z,73.35
2019-02-04T01:21:57.482Z,73.39
2019-02-04T01:23:02.779Z,73.39
2019-02-04T01:24:07.817Z,73.42
2019-02-04T01:25:13.109Z,73.42
2019-02-04T01:26:18.446Z,73.46
2019-02-04T01:27:23.504Z,73.49
2019-02-04T01:28:29.057Z,73.50
2019-02-04T01:29:35.411Z,73.50
2019-02-04T01:30:53.893Z,73.49
2019-02-04T01:31:59.190Z,73.52
2019-02-04T01:33:05.749Z,73.50
2019-02-04T01:34:10.957Z,73.48
2019-02-04T01:35:16.705Z,73.48
2019-02-04T01:36:21.977Z,73.52
2019-02-04T01:37:28.302Z,73.54
2019-02-04T01:38:33.714Z,73.63
2019-02-04T01:39:41.387Z,73.67
2019-02-04T01:40:46.613Z,73.65
2019-02-04T01:41:51.907Z,73.67
2019-02-04T01:42:57.750Z,73.65
2019-02-04T01:44:03.126Z,73.61
2019-02-04T01:45:08.308Z,73.69
2019-02-04T01:46:13.572Z,73.74
2019-02-04T01:47:19.306Z,73.83
2019-02-04T01:48:24.243Z,73.87
2019-02-04T01:49:29.249Z,73.90
2019-02-04T01:50:34.510Z,73.93
2019-02-04T01:51:39.527Z,73.96
2019-02-04T01:52:45.290Z,74.00
2019-02-04T01:53:50.549Z,74.06
2019-02-04T01:54:55.914Z,74.06
2019-02-04T01:56:01.242Z,74.06
2019-02-04T01:57:06.443Z,74.05
2019-02-04T01:58:11.443Z,73.99
2019-02-04T01:59:17.464Z,73.94
2019-02-04T02:00:31.591Z,73.89
2019-02-04T02:01:37.025Z,73.84
2019-02-04T02:02:42.374Z,73.81
2019-02-04T02:03:47.922Z,73.80
2019-02-04T02:04:53.028Z,73.83
2019-02-04T02:05:58.195Z,73.86
2019-02-04T02:07:03.339Z,73.86
2019-02-04T02:08:08.309Z,73.82
2019-02-04T02:09:24.590Z,73.81
2019-02-04T02:10:30.035Z,73.81
2019-02-04T02:11:35.422Z,73.89
2019-02-04T02:12:41.105Z,73.98
2019-02-04T02:13:47.388Z,74.03
2019-02-04T02:14:54.297Z,74.12
2019-02-04T02:15:59.733Z,74.17
2019-02-04T02:17:05.002Z,74.19
2019-02-04T02:18:10.121Z,74.17
2019-02-04T02:19:15.393Z,74.16
2019-02-04T02:20:28.663Z,74.11
2019-02-04T02:21:33.937Z,74.10
2019-02-04T02:22:39.218Z,74.12
2019-02-04T02:23:44.877Z,74.13
2019-02-04T02:24:50.323Z,74.11
2019-02-04T02:25:55.635Z,74.13
2019-02-04T02:27:00.613Z,74.24
2019-02-04T02:28:06.839Z,74.26
2019-02-04T02:29:12.244Z,74.24
2019-02-04T02:30:20.458Z,74.22
2019-02-04T02:31:25.780Z,74.26
2019-02-04T02:32:30.803Z,74.25
2019-02-04T02:33:36.129Z,74.26
2019-02-04T02:34:41.875Z,74.27
2019-02-04T02:35:47.247Z,74.35
2019-02-04T02:36:52.609Z,74.41
2019-02-04T02:37:57.700Z,74.48
2019-02-04T02:39:02.829Z,74.53
2019-02-04T02:40:13.459Z,74.53
2019-02-04T02:41:18.412Z,74.54
2019-02-04T02:42:23.729Z,74.57
2019-02-04T02:43:28.911Z,74.59
2019-02-04T02:44:34.240Z,74.65
2019-02-04T02:45:39.306Z,74.71
2019-02-04T02:46:44.653Z,74.82
2019-02-04T02:47:50.325Z,74.87
2019-02-04T02:48:55.564Z,74.90
2019-02-04T02:50:00.888Z,74.93
2019-02-04T02:51:06.357Z,74.95
2019-02-04T02:52:11.519Z,74.99
2019-02-04T02:53:16.889Z,75.02
2019-02-04T02:54:22.342Z,75.03
2019-02-04T02:55:27.830Z,75.05
2019-02-04T02:56:33.523Z,75.07
2019-02-04T02:57:39.548Z,75.07
2019-02-04T02:58:44.497Z,75.11
2019-02-04T02:59:49.935Z,75.15
2019-02-04T03:00:55.282Z,75.13
2019-02-04T03:02:00.394Z,75.14
2019-02-04T03:03:05.646Z,75.13
2019-02-04T03:04:10.832Z,75.17
2019-02-04T03:05:17.597Z,75.17
2019-02-04T03:06:22.932Z,75.20
2019-02-04T03:07:28.576Z,75.24
2019-02-04T03:08:33.555Z,75.31
2019-02-04T03:09:38.871Z,75.36
2019-02-04T03:10:43.857Z,75.39
2019-02-04T03:11:48.923Z,75.41
2019-02-04T03:12:54.302Z,75.35
2019-02-04T03:13:59.999Z,75.33
2019-02-04T03:15:05.995Z,75.30
2019-02-04T03:16:12.037Z,75.29
2019-02-04T03:17:18.007Z,75.26
2019-02-04T03:18:23.093Z,75.21
2019-02-04T03:19:28.250Z,75.19
2019-02-04T03:20:34.027Z,75.16
2019-02-04T03:21:39.374Z,75.13
2019-02-04T03:22:44.792Z,75.16
2019-02-04T03:23:50.270Z,75.15
2019-02-04T03:24:55.560Z,75.19
2019-02-04T03:26:00.811Z,75.23
2019-02-04T03:27:05.834Z,75.23
2019-02-04T03:28:11.109Z,75.28
2019-02-04T03:29:16.131Z,75.31
2019-02-04T03:30:26.938Z,75.34
2019-02-04T03:31:32.229Z,75.43
2019-02-04T03:32:37.715Z,75.48
2019-02-04T03:33:42.813Z,75.49
2019-02-04T03:34:47.805Z,75.46
2019-02-04T03:35:53.355Z,75.48
2019-02-04T03:36:58.350Z,75.50
2019-02-04T03:38:03.304Z,75.48
2019-02-04T03:39:09.540Z,75.48
2019-02-04T03:40:16.469Z,75.46
2019-02-04T03:41:21.759Z,75.48
2019-02-04T03:42:28.144Z,75.46
2019-02-04T03:43:33.183Z,75.43
2019-02-04T03:44:38.556Z,75.44
2019-02-04T03:45:43.904Z,75.43
2019-02-04T03:46:49.279Z,75.46
2019-02-04T03:48:04.263Z,75.43
2019-02-04T03:49:01.538Z,75.46
2019-02-04T03:50:07.573Z,75.50
2019-02-04T03:51:12.712Z,75.56
2019-02-04T03:52:17.780Z,75.57
2019-02-04T03:53:22.769Z,75.57
2019-02-04T03:54:27.753Z,75.56
2019-02-04T03:55:32.911Z,75.54
2019-02-04T03:56:37.931Z,75.56
2019-02-04T03:57:43.259Z,75.58
2019-02-04T03:58:48.715Z,75.60
2019-02-04T03:59:57.013Z,75.58
2019-02-04T04:01:01.134Z,75.56
2019-02-04T04:02:06.612Z,75.53
2019-02-04T04:03:12.736Z,75.54
2019-02-04T04:04:17.749Z,75.56
2019-02-04T04:05:23.364Z,75.53
2019-02-04T04:06:29.102Z,75.50
2019-02-04T04:07:34.698Z,75.51
2019-02-04T04:08:40.702Z,75.49
2019-02-04T04:09:46.304Z,75.51
2019-02-04T04:10:51.991Z,75.52
2019-02-04T04:11:57.016Z,75.41
2019-02-04T04:13:02.277Z,75.40
2019-02-04T04:14:07.861Z,75.43
2019-02-04T04:15:13.310Z,75.41
2019-02-04T04:16:18.311Z,75.39
2019-02-04T04:17:23.324Z,75.34
2019-02-04T04:18:29.022Z,75.29
2019-02-04T04:19:34.426Z,75.28
2019-02-04T04:20:39.498Z,75.29
2019-02-04T04:21:44.466Z,75.28
2019-02-04T04:22:49.952Z,75.25
2019-02-04T04:23:56.099Z,75.20
2019-02-04T04:25:01.835Z,75.18
2019-02-04T04:26:10.747Z,75.14
2019-02-04T04:27:16.384Z,75.18
2019-02-04T04:28:21.527Z,75.17
2019-02-04T04:29:26.558Z,75.20
2019-02-04T04:30:32.014Z,75.23
2019-02-04T04:31:37.399Z,75.24
2019-02-04T04:32:42.995Z,75.28
2019-02-04T04:33:49.025Z,75.30
2019-02-04T04:34:54.844Z,75.32
2019-02-04T04:36:01.805Z,75.37
2019-02-04T04:37:06.816Z,75.37
2019-02-04T04:38:11.835Z,75.37
2019-02-04T04:39:17.011Z,75.41
2019-02-04T04:40:22.342Z,75.43
2019-02-04T04:41:27.706Z,75.41
2019-02-04T04:42:33.090Z,75.41
2019-02-04T04:43:38.753Z,75.41
2019-02-04T04:44:44.676Z,75.41
2019-02-04T04:45:50.717Z,75.43
2019-02-04T04:46:56.022Z,75.40
2019-02-04T04:48:01.072Z,75.33
2019-02-04T04:49:06.160Z,75.27
2019-02-04T04:50:11.668Z,75.24
2019-02-04T04:51:16.741Z,75.22
2019-02-04T04:52:21.731Z,75.21
2019-02-04T04:53:26.781Z,75.23
2019-02-04T04:54:31.929Z,75.22
2019-02-04T04:55:37.709Z,75.15
2019-02-04T04:56:43.038Z,75.11
2019-02-04T04:57:48.360Z,75.09
2019-02-04T04:58:53.304Z,75.03
2019-02-04T04:59:58.490Z,75.02
2019-02-04T05:01:03.613Z,75.04
2019-02-04T05:02:08.968Z,75.02
2019-02-04T05:03:13.976Z,75.06
2019-02-04T05:04:19.180Z,75.07
2019-02-04T05:05:24.755Z,75.11
2019-02-04T05:06:29.842Z,75.10
2019-02-04T05:07:35.086Z,75.13
2019-02-04T05:08:40.156Z,75.11
2019-02-04T05:09:45.196Z,75.10
2019-02-04T05:10:50.695Z,75.07
2019-02-04T05:11:56.057Z,75.09
2019-02-04T05:13:01.030Z,75.11
2019-02-04T05:14:06.211Z,75.11
2019-02-04T05:15:13.129Z,75.13
2019-02-04T05:16:18.464Z,75.13
2019-02-04T05:17:23.859Z,75.15
2019-02-04T05:18:37.826Z,75.09
2019-02-04T05:19:36.266Z,75.11
2019-02-04T05:20:41.312Z,75.12
2019-02-04T05:21:46.668Z,75.15
2019-02-04T05:22:52.109Z,75.12
2019-02-04T05:23:57.082Z,75.12
2019-02-04T05:25:02.780Z,75.12
2019-02-04T05:26:08.086Z,75.10
2019-02-04T05:27:13.476Z,75.05
2019-02-04T05:28:18.792Z,75.09
2019-02-04T05:29:23.799Z,75.11
2019-02-04T05:30:28.872Z,75.08
2019-02-04T05:31:34.867Z,75.13
2019-02-04T05:32:40.355Z,75.16
2019-02-04T05:33:45.784Z,75.19
2019-02-04T05:34:50.870Z,75.16
2019-02-04T05:35:55.910Z,75.10
2019-02-04T05:37:00.943Z,75.12
2019-02-04T05:38:06.672Z,75.15
2019-02-04T05:39:12.003Z,75.24
2019-02-04T05:40:17.765Z,75.27
2019-02-04T05:41:23.373Z,75.29
2019-02-04T05:42:28.554Z,75.31
2019-02-04T05:43:33.598Z,75.38
2019-02-04T05:44:38.644Z,75.39
2019-02-04T05:45:43.605Z,75.39
2019-02-04T05:46:52.090Z,75.41
2019-02-04T05:47:57.041Z,75.46
2019-02-04T05:49:02.046Z,75.53
2019-02-04T05:50:09.873Z,75.51
2019-02-04T05:51:15.154Z,75.50
2019-02-04T05:52:20.540Z,75.48
2019-02-04T05:53:25.596Z,75.46
2019-02-04T05:54:30.850Z,75.48
2019-02-04T05:55:36.231Z,75.42
2019-02-04T05:56:41.445Z,75.45
2019-02-04T05:57:46.601Z,75.44
2019-02-04T05:58:52.077Z,75.43
2019-02-04T05:59:57.182Z,75.44
2019-02-04T06:01:02.269Z,75.44
2019-02-04T06:02:09.405Z,75.39
2019-02-04T06:03:14.424Z,75.37
2019-02-04T06:04:20.168Z,75.38
2019-02-04T06:05:25.632Z,75.42
2019-02-04T06:06:30.565Z,75.36
2019-02-04T06:07:36.126Z,75.39
2019-02-04T06:08:41.220Z,75.41
2019-02-04T06:09:46.863Z,75.38
2019-02-04T06:10:52.308Z,75.41
2019-02-04T06:11:57.589Z,75.35
2019-02-04T06:13:02.706Z,75.36
2019-02-04T06:14:07.931Z,75.38
2019-02-04T06:15:13.682Z,75.42
2019-02-04T06:16:18.734Z,75.42
2019-02-04T06:17:24.133Z,75.43
2019-02-04T06:18:29.393Z,75.47
2019-02-04T06:19:34.485Z,75.50
2019-02-04T06:20:39.693Z,75.67
2019-02-04T06:21:45.300Z,75.71
2019-02-04T06:22:50.691Z,75.70
2019-02-04T06:23:55.991Z,75.66
2019-02-04T06:25:01.471Z,75.64
2019-02-04T06:26:06.859Z,75.65
2019-02-04T06:27:12.242Z,75.58
2019-02-04T06:28:17.282Z,75.60
2019-02-04T06:29:22.623Z,75.61
2019-02-04T06:30:27.629Z,75.57
2019-02-04T06:31:33.206Z,75.55
2019-02-04T06:32:38.242Z,75.51
2019-02-04T06:33:43.882Z,75.45
2019-02-04T06:34:48.970Z,75.46
2019-02-04T06:35:55.215Z,75.53
2019-02-04T06:37:00.882Z,75.62
2019-02-04T06:38:05.886Z,75.60
2019-02-04T06:39:11.973Z,75.54
2019-02-04T06:40:17.173Z,75.52
2019-02-04T06:41:22.208Z,75.55
2019-02-04T06:42:27.668Z,75.49
2019-02-04T06:43:33.164Z,75.46
2019-02-04T06:44:38.328Z,75.51
2019-02-04T06:45:45.948Z,75.54
2019-02-04T06:46:50.349Z,75.62
2019-02-04T06:47:55.401Z,75.60
2019-02-04T06:49:11.927Z,75.51
2019-02-04T06:50:11.915Z,75.51
2019-02-04T06:51:17.504Z,75.58
2019-02-04T06:52:23.126Z,75.67
2019-02-04T06:53:28.108Z,75.67
2019-02-04T06:54:33.500Z,75.62
2019-02-04T06:55:39.433Z,75.66
2019-02-04T06:56:44.380Z,75.61
2019-02-04T06:57:49.803Z,75.50
2019-02-04T06:58:54.957Z,75.49
2019-02-04T07:00:00.744Z,75.55
2019-02-04T07:01:06.076Z,75.60
2019-02-04T07:02:11.299Z,75.46
2019-02-04T07:03:16.418Z,75.52
2019-02-04T07:04:21.695Z,75.54
2019-02-04T07:05:26.985Z,75.50
2019-02-04T07:06:32.379Z,75.48
2019-02-04T07:07:37.955Z,75.51
2019-02-04T07:08:43.260Z,75.49
2019-02-04T07:09:48.533Z,75.56
2019-02-04T07:10:53.890Z,75.58
2019-02-04T07:11:59.857Z,75.58
2019-02-04T07:13:05.549Z,75.63
2019-02-04T07:14:10.966Z,75.60
2019-02-04T07:15:16.886Z,75.57
2019-02-04T07:16:22.231Z,75.57
2019-02-04T07:17:27.522Z,75.56
2019-02-04T07:18:32.842Z,75.64
2019-02-04T07:19:37.818Z,75.71
2019-02-04T07:20:43.042Z,75.82
2019-02-04T07:21:48.414Z,75.81
2019-02-04T07:22:53.856Z,75.73
2019-02-04T07:23:59.275Z,75.54
2019-02-04T07:25:05.715Z,75.56
2019-02-04T07:26:10.864Z,75.49
2019-02-04T07:27:16.107Z,75.41
2019-02-04T07:28:21.475Z,75.29
2019-02-04T07:29:27.146Z,75.36
2019-02-04T07:30:32.178Z,75.35
2019-02-04T07:31:37.269Z,75.25
2019-02-04T07:32:42.596Z,75.24
2019-02-04T07:33:48.488Z,75.26
2019-02-04T07:34:53.694Z,75.19
2019-02-04T07:35:58.634Z,75.13
2019-02-04T07:37:03.661Z,75.17
2019-02-04T07:38:08.761Z,75.12
2019-02-04T07:39:13.830Z,74.99
2019-02-04T07:40:38.193Z,74.95
2019-02-04T07:41:43.640Z,74.76
2019-02-04T07:42:49.252Z,74.61
2019-02-04T07:43:54.232Z,74.61
2019-02-04T07:44:59.631Z,74.63
2019-02-04T07:46:05.016Z,74.62
2019-02-04T07:47:10.275Z,74.54
2019-02-04T07:48:15.878Z,74.41
2019-02-04T07:49:21.165Z,74.38
2019-02-04T07:50:26.431Z,74.27
2019-02-04T07:51:32.402Z,74.25
2019-02-04T07:52:37.523Z,74.30
2019-02-04T07:53:42.813Z,74.26
2019-02-04T07:54:48.255Z,74.25
2019-02-04T07:55:53.809Z,74.16
2019-02-04T07:56:58.832Z,74.21
2019-02-04T07:58:04.940Z,74.02
2019-02-04T07:59:10.623Z,74.12
2019-02-04T08:00:27.308Z,74.04
2019-02-04T08:01:32.698Z,74.06
2019-02-04T08:02:38.239Z,73.95
2019-02-04T08:03:43.678Z,73.97
2019-02-04T08:04:48.823Z,73.97
2019-02-04T08:05:54.185Z,73.98
2019-02-04T08:06:59.611Z,73.97
2019-02-04T08:08:05.289Z,73.92
2019-02-04T08:09:10.738Z,73.85
2019-02-04T08:10:15.989Z,73.77
2019-02-04T08:11:21.316Z,73.82
2019-02-04T08:12:26.260Z,73.70
2019-02-04T08:13:31.955Z,73.61
2019-02-04T08:14:37.032Z,73.64
2019-02-04T08:15:42.360Z,73.66
2019-02-04T08:16:47.817Z,73.58
2019-02-04T08:17:53.091Z,73.59
2019-02-04T08:18:58.432Z,73.57
2019-02-04T08:20:04.779Z,73.50
2019-02-04T08:21:10.207Z,73.50
2019-02-04T08:22:15.467Z,73.45
2019-02-04T08:23:20.448Z,73.47
2019-02-04T08:24:25.476Z,73.47
2019-02-04T08:25:31.045Z,73.47
2019-02-04T08:26:36.579Z,73.43
2019-02-04T08:27:41.935Z,73.36
2019-02-04T08:28:47.781Z,73.27
2019-02-04T08:29:53.082Z,73.17
2019-02-04T08:30:58.589Z,73.15
2019-02-04T08:32:03.835Z,73.10
2019-02-04T08:33:09.000Z,73.03
2019-02-04T08:34:14.382Z,73.08
2019-02-04T08:35:19.932Z,73.03
2019-02-04T08:36:25.472Z,72.90
2019-02-04T08:37:30.515Z,72.90
2019-02-04T08:38:36.194Z,72.86
2019-02-04T08:39:41.189Z,72.85
2019-02-04T08:40:46.213Z,72.82
2019-02-04T08:41:51.427Z,72.80
2019-02-04T08:42:56.859Z,72.77
2019-02-04T08:44:01.911Z,72.68
2019-02-04T08:45:07.543Z,72.58
2019-02-04T08:46:12.491Z,72.53
2019-02-04T08:47:22.879Z,72.49
2019-02-04T08:48:25.208Z,72.53
2019-02-04T08:49:30.819Z,72.45
2019-02-04T08:50:36.380Z,72.40
2019-02-04T08:51:42.174Z,72.39
2019-02-04T08:52:47.806Z,72.32
2019-02-04T08:53:54.078Z,72.29
2019-02-04T08:54:59.471Z,72.23
2019-02-04T08:56:04.815Z,72.16
2019-02-04T08:57:09.896Z,72.26
2019-02-04T08:58:15.333Z,72.17
2019-02-04T08:59:20.725Z,72.20
2019-02-04T09:00:26.355Z,72.10
2019-02-04T09:01:31.818Z,72.01
2019-02-04T09:02:37.146Z,72.00
2019-02-04T09:03:43.006Z,71.98
2019-02-04T09:04:48.018Z,71.86
2019-02-04T09:05:53.285Z,71.83
2019-02-04T09:06:58.688Z,71.77
2019-02-04T09:08:07.526Z,71.68
2019-02-04T09:09:13.791Z,71.56
2019-02-04T09:10:22.031Z,71.59
2019-02-04T09:11:27.755Z,71.58
2019-02-04T09:12:33.524Z,71.51
2019-02-04T09:13:39.111Z,71.45
2019-02-04T09:14:44.207Z,71.38
2019-02-04T09:15:49.581Z,71.40
2019-02-04T09:16:54.801Z,71.40
2019-02-04T09:18:00.984Z,71.40
2019-02-04T09:19:06.257Z,71.25
2019-02-04T09:20:13.026Z,71.22
2019-02-04T09:21:18.150Z,71.14
2019-02-04T09:22:23.774Z,71.14
2019-02-04T09:23:28.790Z,71.07
2019-02-04T09:24:33.719Z,70.91
2019-02-04T09:25:38.794Z,70.80
2019-02-04T09:26:44.451Z,70.78
2019-02-04T09:27:49.865Z,70.85
2019-02-04T09:28:55.078Z,70.75
2019-02-04T09:30:00.588Z,70.72
2019-02-04T09:31:06.544Z,70.62
2019-02-04T09:32:13.694Z,70.69
2019-02-04T09:33:19.028Z,70.67
2019-02-04T09:34:24.405Z,70.63
2019-02-04T09:35:29.638Z,70.53
2019-02-04T09:36:35.084Z,70.54
2019-02-04T09:37:40.174Z,70.38
2019-02-04T09:38:45.767Z,70.41
2019-02-04T09:39:51.127Z,70.38
2019-02-04T09:40:56.591Z,70.32
2019-02-04T09:42:01.778Z,70.20
2019-02-04T09:43:07.539Z,70.23
2019-02-04T09:44:12.550Z,70.21
2019-02-04T09:45:17.680Z,70.12
2019-02-04T09:46:22.786Z,70.01
2019-02-04T09:47:28.400Z,69.94
2019-02-04T09:48:33.728Z,69.91
2019-02-04T09:49:39.090Z,69.87
2019-02-04T09:50:44.194Z,69.87
2019-02-04T09:51:49.436Z,69.79
2019-02-04T09:52:54.686Z,69.74
2019-02-04T09:54:00.551Z,69.66
2019-02-04T09:55:07.684Z,69.58
2019-02-04T09:56:13.682Z,69.39
2019-02-04T09:57:19.038Z,69.32
2019-02-04T09:58:24.161Z,69.34
2019-02-04T09:59:29.527Z,69.37
2019-02-04T10:00:35.434Z,69.35
2019-02-04T10:01:40.717Z,69.30
2019-02-04T10:02:46.130Z,69.25
2019-02-04T10:03:51.186Z,69.22
2019-02-04T10:04:56.134Z,69.17
2019-02-04T10:06:58.233Z,69.08
2019-02-04T10:08:03.529Z,68.98
2019-02-04T10:11:07.082Z,68.89
2019-02-04T10:12:12.170Z,68.87
2019-02-04T10:15:39.075Z,68.85
2019-02-04T10:16:44.006Z,68.59
2019-02-04T10:17:49.145Z,68.74
2019-02-04T10:18:54.029Z,68.76
2019-02-04T10:19:58.910Z,68.81
2019-02-04T10:21:04.715Z,68.85
2019-02-04T10:22:10.049Z,68.75
2019-02-04T10:23:15.448Z,68.78
2019-02-04T10:24:20.563Z,68.66
2019-02-04T10:25:27.828Z,68.65
2019-02-04T10:26:32.839Z,68.57
2019-02-04T10:27:38.364Z,68.53
2019-02-04T10:28:43.312Z,68.42
2019-02-04T10:29:48.298Z,68.35
2019-02-04T10:30:53.434Z,68.30
2019-02-04T10:31:58.705Z,68.19
2019-02-04T10:33:03.837Z,68.11
2019-02-04T10:34:09.206Z,68.04
2019-02-04T10:35:16.809Z,68.02
2019-02-04T10:36:21.945Z,67.96
2019-02-04T10:37:27.197Z,67.90
2019-02-04T10:38:33.103Z,67.80
2019-02-04T10:39:38.551Z,67.75
2019-02-04T10:40:43.613Z,67.68
2019-02-04T10:41:48.627Z,67.67
2019-02-04T10:42:54.095Z,67.60
2019-02-04T10:43:59.065Z,67.61
2019-02-04T10:45:04.468Z,67.51
2019-02-04T10:46:09.590Z,67.37
2019-02-04T10:47:14.642Z,67.31
2019-02-04T10:48:20.005Z,67.24
2019-02-04T10:49:25.387Z,67.21
2019-02-04T10:50:32.456Z,67.04
2019-02-04T10:51:37.455Z,66.98
2019-02-04T10:52:42.402Z,66.92
2019-02-04T10:53:47.448Z,66.90
2019-02-04T10:54:52.758Z,66.74
2019-02-04T10:55:58.151Z,66.68
2019-02-04T10:57:04.510Z,66.59
2019-02-04T10:58:11.240Z,66.59
2019-02-04T10:59:16.260Z,66.49
2019-02-04T11:00:23.813Z,66.46
2019-02-04T11:01:28.984Z,66.39
2019-02-04T11:02:34.001Z,66.38
2019-02-04T11:03:38.970Z,66.32
2019-02-04T11:04:43.977Z,66.21
2019-02-04T11:05:48.901Z,66.12
2019-02-04T11:06:53.993Z,66.11
2019-02-04T11:07:59.124Z,65.94
2019-02-04T11:09:06.440Z,65.94
2019-02-04T11:10:12.589Z,65.92
2019-02-04T11:11:18.080Z,65.83
2019-02-04T11:12:23.448Z,65.54
2019-02-04T11:13:28.365Z,65.48
2019-02-04T11:14:33.306Z,65.60
2019-02-04T11:15:38.451Z,65.55
2019-02-04T11:16:43.518Z,65.47
2019-02-04T11:17:48.842Z,65.46
2019-02-04T11:18:54.191Z,65.42
2019-02-04T11:20:00.009Z,65.37
2019-02-04T11:21:05.590Z,65.31
2019-02-04T11:22:10.669Z,65.30
2019-02-04T11:23:17.394Z,65.29
2019-02-04T11:24:22.429Z,65.29
2019-02-04T11:25:27.618Z,65.23
2019-02-04T11:26:32.642Z,65.24
2019-02-04T11:27:38.182Z,65.19
2019-02-04T11:28:43.156Z,65.07
2019-02-04T11:29:48.579Z,65.02
2019-02-04T11:31:02.247Z,64.87
2019-02-04T11:32:07.839Z,64.82
2019-02-04T11:33:13.051Z,64.77
2019-02-04T11:34:18.279Z,64.71
2019-02-04T11:35:23.680Z,64.49
2019-02-04T11:36:28.653Z,64.37
2019-02-04T11:37:34.280Z,64.17
2019-02-04T11:38:39.344Z,64.21
2019-02-04T11:39:44.434Z,64.18
2019-02-04T11:40:49.793Z,64.17
2019-02-04T11:41:54.830Z,63.94
2019-02-04T11:43:00.179Z,63.91
2019-02-04T11:44:05.744Z,63.87
2019-02-04T11:45:11.420Z,63.77
2019-02-04T11:46:16.632Z,63.71
2019-02-04T11:47:21.626Z,63.51
2019-02-04T11:48:26.798Z,63.48
2019-02-04T11:49:32.013Z,63.37
2019-02-04T11:50:37.229Z,63.30
2019-02-04T11:51:42.253Z,63.06
2019-02-04T11:52:47.505Z,63.07
2019-02-04T11:53:53.290Z,62.94
2019-02-04T11:54:58.262Z,62.99
2019-02-04T11:56:03.289Z,62.98
2019-02-04T11:57:08.310Z,62.96
2019-02-04T11:58:13.322Z,62.90
2019-02-04T11:59:19.579Z,62.88
2019-02-04T12:00:26.031Z,62.80
2019-02-04T12:01:31.133Z,62.75
2019-02-04T12:02:36.150Z,62.74
2019-02-04T12:03:41.264Z,62.67
2019-02-04T12:04:46.456Z,62.52
2019-02-04T12:05:51.974Z,62.43
2019-02-04T12:06:56.991Z,62.37
2019-02-04T12:08:02.205Z,62.31
2019-02-04T12:09:09.220Z,62.07
2019-02-04T12:10:18.128Z,62.03
2019-02-04T12:11:23.774Z,61.91
2019-02-04T12:12:28.752Z,61.86
2019-02-04T12:13:33.936Z,61.71
2019-02-04T12:14:39.062Z,61.66
2019-02-04T12:15:44.238Z,61.60
2019-02-04T12:16:49.274Z,61.52
2019-02-04T12:17:54.373Z,61.32
2019-02-04T12:18:59.538Z,61.33
2019-02-04T12:20:05.602Z,61.08
2019-02-04T12:21:21.206Z,61.15
2019-02-04T12:22:17.487Z,61.08
2019-02-04T12:23:22.769Z,60.95
2019-02-04T12:24:28.023Z,60.86
2019-02-04T12:25:33.066Z,60.72
2019-02-04T12:26:38.121Z,60.71
2019-02-04T12:27:43.397Z,60.07
2019-02-04T12:28:49.048Z,60.03
2019-02-04T12:29:54.097Z,59.79
2019-02-04T12:30:59.038Z,59.76
2019-02-04T12:32:04.146Z,59.72
2019-02-04T12:33:11.407Z,59.61
2019-02-04T12:34:16.363Z,59.37
2019-02-04T12:35:22.270Z,59.15
2019-02-04T12:36:27.529Z,58.64
2019-02-04T12:37:32.766Z,58.48
2019-02-04T12:38:37.963Z,58.41
2019-02-04T12:39:43.180Z,58.18
2019-02-04T12:40:48.152Z,58.21
2019-02-04T12:41:53.197Z,58.19
2019-02-04T12:42:58.104Z,58.00
2019-02-04T12:44:03.118Z,58.00
2019-02-04T12:45:10.852Z,57.85
2019-02-04T12:46:16.228Z,57.88
2019-02-04T12:47:21.498Z,57.85
2019-02-04T12:48:26.708Z,57.80
2019-02-04T12:49:32.375Z,57.50
2019-02-04T12:50:38.104Z,57.42
2019-02-04T12:51:43.076Z,57.22
2019-02-04T12:52:48.432Z,57.10
2019-02-04T12:53:53.445Z,57.00
2019-02-04T12:54:59.076Z,57.03
2019-02-04T12:56:04.631Z,56.95
2019-02-04T12:57:10.052Z,56.72
2019-02-04T12:58:15.246Z,56.76
2019-02-04T12:59:20.217Z,56.55
2019-02-04T13:00:26.931Z,56.35
2019-02-04T13:01:32.342Z,56.38
2019-02-04T13:02:37.310Z,56.25
2019-02-04T13:03:42.329Z,56.23
2019-02-04T13:04:47.415Z,56.17
2019-02-04T13:05:54.655Z,55.95
2019-02-04T13:06:59.758Z,55.95
2019-02-04T13:08:05.824Z,55.89
2019-02-04T13:09:10.773Z,55.76
2019-02-04T13:10:16.585Z,55.73
2019-02-04T13:11:21.723Z,55.69
2019-02-04T13:12:28.150Z,55.54
2019-02-04T13:13:33.570Z,55.50
2019-02-04T13:14:38.857Z,55.48
2019-02-04T13:15:43.967Z,55.42
2019-02-04T13:16:49.017Z,55.41
2019-02-04T13:17:54.228Z,55.34
2019-02-04T13:18:59.128Z,55.02
2019-02-04T13:20:05.626Z,54.93
2019-02-04T13:21:10.589Z,54.80
2019-02-04T13:22:15.804Z,54.59
2019-02-04T13:23:20.850Z,54.45
2019-02-04T13:24:25.976Z,54.37
2019-02-04T13:25:31.104Z,54.19
2019-02-04T13:26:36.079Z,54.04
2019-02-04T13:27:41.157Z,53.98
2019-02-04T13:28:46.244Z,53.85
2019-02-04T13:29:51.920Z,53.68
2019-02-04T13:30:57.175Z,53.43
2019-02-04T13:32:02.238Z,53.25
2019-02-04T13:33:07.437Z,52.93
2019-02-04T13:34:12.878Z,52.94
2019-02-04T13:35:18.232Z,52.73
2019-02-04T13:36:23.307Z,52.37
2019-02-04T13:37:28.447Z,52.26
2019-02-04T13:38:33.522Z,52.36
2019-02-04T13:39:38.574Z,52.20
2019-02-04T13:40:44.787Z,52.13
2019-02-04T13:41:49.752Z,52.00
2019-02-04T13:42:55.366Z,51.96
2019-02-04T13:44:00.760Z,51.85
2019-02-04T13:45:09.259Z,51.80
2019-02-04T13:46:14.273Z,51.54
2019-02-04T13:47:19.174Z,51.45
2019-02-04T13:48:24.413Z,51.45
2019-02-04T13:49:29.745Z,51.34
2019-02-04T13:50:35.178Z,51.11
2019-02-04T13:51:40.167Z,51.20
2019-02-04T13:52:45.379Z,51.26
2019-02-04T13:53:50.702Z,51.33
2019-02-04T13:54:55.778Z,51.30
2019-02-04T13:56:01.076Z,51.05
2019-02-04T13:57:06.636Z,51.17
2019-02-04T13:58:11.976Z,51.14
2019-02-04T13:59:17.000Z,51.10
2019-02-04T14:00:22.744Z,50.96
2019-02-04T14:01:27.845Z,50.95
2019-02-04T14:02:33.415Z,50.76
2019-02-04T14:03:39.429Z,50.83
2019-02-04T14:04:44.438Z,50.89
2019-02-04T14:05:49.804Z,50.96
2019-02-04T14:06:54.731Z,50.84
2019-02-04T14:08:00.165Z,50.74
2019-02-04T14:09:12.256Z,50.70
2019-02-04T14:10:19.769Z,50.72
2019-02-04T14:11:24.775Z,50.62
2019-02-04T14:12:30.138Z,50.66